createdAt,value
2019-02-20T00:00:02.267Z,101307.67
2019-02-20T00:02:30.781Z,101302.77
2019-02-20T00:04:59.234Z,101300.77
2019-02-20T00:07:27.705Z,101308.75
2019-02-20T00:09:56.179Z,101309.11
2019-02-20T00:12:24.667Z,101314.73
2019-02-20T00:14:54.636Z,101312.20
2019-02-20T00:17:23.110Z,101310.36
2019-02-20T00:19:51.582Z,101315.56
2019-02-20T00:22:20.069Z,101311.02
2019-02-20T00:24:48.620Z,101306.58
2019-02-20T00:27:17.091Z,101318.62
2019-02-20T00:29:45.553Z,101322.66
2019-02-20T00:32:14.048Z,101322.83
2019-02-20T00:34:42.522Z,101323.91
2019-02-20T00:37:11.604Z,101322.01
2019-02-20T00:39:40.082Z,101333.75
2019-02-20T00:42:08.555Z,101333.98
2019-02-20T00:44:44.391Z,101335.33
2019-02-20T00:47:14.506Z,101345.16
2019-02-20T00:49:43.347Z,101343.05
2019-02-20T00:52:13.457Z,101339.97
2019-02-20T00:54:42.014Z,101348.61
2019-02-20T00:57:10.492Z,101346.17
2019-02-20T00:59:39.064Z,101348.73
2019-02-20T01:02:07.554Z,101349.63
2019-02-20T01:04:36.038Z,101343.48
2019-02-20T01:07:05.036Z,101339.04
2019-02-20T01:09:33.512Z,101345.00
2019-02-20T01:12:01.990Z,101340.45
2019-02-20T01:14:30.515Z,101340.36
2019-02-20T01:16:59.035Z,101342.56
2019-02-20T01:19:27.518Z,101346.70
2019-02-20T01:21:55.987Z,101341.97
2019-02-20T01:24:24.454Z,101349.47
2019-02-20T01:26:53.113Z,101350.81
2019-02-20T01:29:21.591Z,101353.78
2019-02-20T01:31:50.086Z,101348.02
2019-02-20T01:34:18.564Z,101351.41
2019-02-20T01:36:47.039Z,101354.66
2019-02-20T01:39:15.522Z,101351.80
2019-02-20T01:41:43.994Z,101366.64
2019-02-20T01:44:12.461Z,101369.10
2019-02-20T01:46:41.000Z,101367.69
2019-02-20T01:49:09.476Z,101361.61
2019-02-20T01:51:37.952Z,101357.27
2019-02-20T01:54:06.452Z,101357.56
2019-02-20T01:56:34.938Z,101360.91
2019-02-20T01:59:03.404Z,101356.21
2019-02-20T02:01:31.888Z,101354.27
2019-02-20T02:04:01.160Z,101359.59
2019-02-20T02:06:29.786Z,101363.81
2019-02-20T02:08:59.657Z,101364.10
2019-02-20T02:11:28.289Z,101364.30
2019-02-20T02:13:56.771Z,101360.75
2019-02-20T02:16:25.252Z,101358.74
2019-02-20T02:18:53.744Z,101363.94
2019-02-20T02:21:22.293Z,101362.09
2019-02-20T02:23:50.803Z,101357.66
2019-02-20T02:26:19.283Z,101355.87
2019-02-20T02:28:47.745Z,101356.14
2019-02-20T02:31:16.386Z,101354.63
2019-02-20T02:33:44.860Z,101357.33
2019-02-20T02:36:13.386Z,101361.53
2019-02-20T02:38:41.873Z,101361.46
2019-02-20T02:41:10.330Z,101366.86
2019-02-20T02:43:38.812Z,101331.31
2019-02-20T02:46:07.313Z,101368.20
2019-02-20T02:48:35.773Z,101368.53
2019-02-20T02:51:05.861Z,101374.41
2019-02-20T02:53:34.343Z,101360.44
2019-02-20T02:56:02.871Z,101356.39
2019-02-20T02:58:31.432Z,101355.24
2019-02-20T03:00:59.975Z,101364.48
2019-02-20T03:03:28.553Z,101367.18
2019-02-20T03:05:57.082Z,101367.34
2019-02-20T03:08:25.680Z,101367.02
2019-02-20T03:10:55.659Z,101369.48
2019-02-20T03:13:24.129Z,101366.78
2019-02-20T03:15:52.639Z,101366.91
2019-02-20T03:18:21.095Z,101368.72
2019-02-20T03:20:49.574Z,101372.40
2019-02-20T03:23:18.144Z,101371.52
2019-02-20T03:25:46.602Z,101378.16
2019-02-20T03:28:15.162Z,101388.86
2019-02-20T03:30:43.805Z,101378.25
2019-02-20T03:33:12.516Z,101376.05
2019-02-20T03:35:41.005Z,101373.45
2019-02-20T03:38:09.496Z,101375.29
2019-02-20T03:40:37.963Z,101381.46
2019-02-20T03:43:06.561Z,101385.23
2019-02-20T03:45:35.037Z,101389.84
2019-02-20T03:48:03.574Z,101382.79
2019-02-20T03:50:32.125Z,101392.05
2019-02-20T03:53:00.600Z,101394.92
2019-02-20T03:55:29.715Z,101378.55
2019-02-20T03:57:58.244Z,101390.34
2019-02-20T04:00:26.758Z,101385.05
2019-02-20T04:02:55.222Z,101391.31
2019-02-20T04:05:23.769Z,101386.48
2019-02-20T04:07:52.239Z,101388.59
2019-02-20T04:10:20.879Z,101379.83
2019-02-20T04:12:49.378Z,101383.11
2019-02-20T04:15:18.021Z,101371.27
2019-02-20T04:17:46.493Z,101375.12
2019-02-20T04:20:15.048Z,101375.70
2019-02-20T04:22:43.552Z,101380.31
2019-02-20T04:25:12.129Z,101385.80
2019-02-20T04:27:40.664Z,101391.95
2019-02-20T04:30:10.182Z,101393.21
2019-02-20T04:32:38.664Z,101385.51
2019-02-20T04:35:07.318Z,101383.72
2019-02-20T04:37:35.802Z,101382.86
2019-02-20T04:40:05.948Z,101386.77
2019-02-20T04:42:34.589Z,101389.75
2019-02-20T04:45:03.226Z,101396.11
2019-02-20T04:47:33.125Z,101393.44
2019-02-20T04:50:01.633Z,101392.75
2019-02-20T04:52:30.109Z,101395.94
2019-02-20T04:54:58.932Z,101392.66
2019-02-20T04:57:27.485Z,101352.95
2019-02-20T04:59:55.965Z,101393.91
2019-02-20T05:02:24.512Z,101389.28
2019-02-20T05:04:52.972Z,101396.70
2019-02-20T05:07:21.478Z,101389.27
2019-02-20T05:09:50.311Z,101393.33
2019-02-20T05:12:18.853Z,101401.05
2019-02-20T05:14:47.354Z,101395.35
2019-02-20T05:17:15.819Z,101404.20
2019-02-20T05:19:44.299Z,101402.39
2019-02-20T05:22:12.807Z,101400.05
2019-02-20T05:24:41.290Z,101366.65
2019-02-20T05:27:29.093Z,101404.21
2019-02-20T05:29:57.558Z,101414.99
2019-02-20T05:32:26.053Z,101406.42
2019-02-20T05:34:54.525Z,101395.23
2019-02-20T05:37:23.003Z,101404.31
2019-02-20T05:39:51.470Z,101402.38
2019-02-20T05:42:19.943Z,101408.12
2019-02-20T05:44:48.406Z,101406.32
2019-02-20T05:47:16.865Z,101413.06
2019-02-20T05:49:45.344Z,101414.87
2019-02-20T05:52:13.841Z,101407.88
2019-02-20T05:54:42.332Z,101427.80
2019-02-20T05:57:10.847Z,101423.63
2019-02-20T05:59:39.351Z,101418.15
2019-02-20T06:02:07.848Z,101417.56
2019-02-20T06:04:36.358Z,101427.98
2019-02-20T06:07:04.943Z,101422.40
2019-02-20T06:09:33.402Z,101420.26
2019-02-20T06:12:01.880Z,101428.84
2019-02-20T06:14:30.469Z,101434.81
2019-02-20T06:16:58.933Z,101439.44
2019-02-20T06:19:27.398Z,101437.91
2019-02-20T06:21:55.958Z,101438.00
2019-02-20T06:24:24.438Z,101444.92
2019-02-20T06:26:53.123Z,101441.95
2019-02-20T06:29:24.733Z,101445.90
2019-02-20T06:31:53.192Z,101445.69
2019-02-20T06:34:21.681Z,101448.29
2019-02-20T06:36:50.134Z,101455.42
2019-02-20T06:39:18.630Z,101447.70
2019-02-20T06:41:47.093Z,101447.83
2019-02-20T06:44:15.561Z,101448.60
2019-02-20T06:46:44.048Z,101448.97
2019-02-20T06:49:12.502Z,101463.02
2019-02-20T06:51:41.660Z,101454.57
2019-02-20T06:54:10.205Z,101463.60
2019-02-20T06:56:38.666Z,101464.55
2019-02-20T06:59:07.315Z,101462.25
2019-02-20T07:01:35.793Z,101465.05
2019-02-20T07:04:04.344Z,101465.04
2019-02-20T07:06:35.852Z,101468.10
2019-02-20T07:09:22.285Z,101464.09
2019-02-20T07:12:17.366Z,101466.97
2019-02-20T07:15:09.885Z,101471.19
2019-02-20T07:18:05.293Z,101474.66
2019-02-20T07:20:40.459Z,101483.05
2019-02-20T07:23:32.660Z,101483.14
2019-02-20T07:26:28.600Z,101491.68
2019-02-20T07:29:33.814Z,101494.11
2019-02-20T07:32:02.278Z,101499.98
2019-02-20T07:34:32.302Z,101505.19
2019-02-20T07:37:00.774Z,101507.30
2019-02-20T07:39:29.242Z,101516.28
2019-02-20T07:42:00.894Z,101514.22
2019-02-20T07:44:29.351Z,101509.50
2019-02-20T07:46:57.918Z,101518.27
2019-02-20T07:49:26.406Z,101518.27
2019-02-20T07:51:54.904Z,101521.27
2019-02-20T07:54:24.314Z,101534.44
2019-02-20T07:56:52.897Z,101534.53
2019-02-20T07:59:21.486Z,101540.01
2019-02-20T08:01:50.066Z,101540.59
2019-02-20T08:04:19.234Z,101538.84
2019-02-20T08:06:47.732Z,101542.21
2019-02-20T08:09:16.237Z,101555.69
2019-02-20T08:11:44.826Z,101550.97
2019-02-20T08:14:13.287Z,101560.22
2019-02-20T08:16:41.774Z,101558.28
2019-02-20T08:19:10.246Z,101564.23
2019-02-20T08:21:40.904Z,101562.20
2019-02-20T08:24:09.355Z,101561.83
2019-02-20T08:26:37.839Z,101567.49
2019-02-20T08:29:06.391Z,101565.28
2019-02-20T08:31:34.973Z,101567.84
2019-02-20T08:34:03.432Z,101571.81
2019-02-20T08:36:34.248Z,101573.15
2019-02-20T08:39:04.380Z,101584.39
2019-02-20T08:41:32.948Z,101583.92
2019-02-20T08:44:01.426Z,101584.09
2019-02-20T08:46:29.887Z,101587.62
2019-02-20T08:48:58.439Z,101586.47
2019-02-20T08:51:27.013Z,101586.34
2019-02-20T08:53:55.509Z,101590.70
2019-02-20T08:56:23.994Z,101585.95
2019-02-20T08:58:52.457Z,101594.02
2019-02-20T09:01:20.931Z,101595.86
2019-02-20T09:03:49.428Z,101595.06
2019-02-20T09:06:17.897Z,101596.90
2019-02-20T09:08:46.459Z,101591.81
2019-02-20T09:11:14.928Z,101594.65
2019-02-20T09:13:43.408Z,101602.20
2019-02-20T09:16:11.890Z,101601.98
2019-02-20T09:18:40.367Z,101605.24
2019-02-20T09:21:08.846Z,101615.99
2019-02-20T09:23:37.386Z,101618.20
2019-02-20T09:26:05.862Z,101620.84
2019-02-20T09:28:34.365Z,101615.93
2019-02-20T09:31:02.907Z,101626.47
2019-02-20T09:33:31.439Z,101629.38
2019-02-20T09:35:59.918Z,101629.97
2019-02-20T09:39:28.966Z,101634.09
2019-02-20T09:41:57.519Z,101637.41
2019-02-20T09:44:25.999Z,101636.63
2019-02-20T09:46:54.475Z,101633.03
2019-02-20T09:49:22.955Z,101636.16
2019-02-20T09:51:51.621Z,101640.21
2019-02-20T09:54:20.078Z,101637.84
2019-02-20T09:56:48.548Z,101633.29
2019-02-20T09:59:17.064Z,101638.76
2019-02-20T10:01:45.537Z,101648.78
2019-02-20T10:04:14.017Z,101652.58
2019-02-20T10:06:42.506Z,101655.89
2019-02-20T10:09:10.971Z,101659.16
2019-02-20T10:11:39.455Z,101658.39
2019-02-20T10:14:07.987Z,101661.56
2019-02-20T10:16:36.461Z,101664.13
2019-02-20T10:19:05.035Z,101663.33
2019-02-20T10:21:33.533Z,101665.59
2019-02-20T10:24:02.007Z,101666.25
2019-02-20T10:26:30.487Z,101669.86
2019-02-20T10:28:58.959Z,101671.32
2019-02-20T10:31:27.525Z,101671.81
2019-02-20T10:33:56.273Z,101680.84
2019-02-20T10:36:24.811Z,101674.98
2019-02-20T10:38:53.289Z,101691.82
2019-02-20T10:41:22.418Z,101687.55
2019-02-20T10:43:50.927Z,101688.26
2019-02-20T10:46:19.403Z,101692.58
2019-02-20T10:48:47.888Z,101692.55
2019-02-20T10:51:16.438Z,101692.27
2019-02-20T10:53:44.922Z,101692.68
2019-02-20T10:56:13.407Z,101700.02
2019-02-20T10:58:41.884Z,101697.22
2019-02-20T11:01:11.908Z,101698.42
2019-02-20T11:03:40.466Z,101700.58
2019-02-20T11:06:09.062Z,101705.54
2019-02-20T11:08:37.560Z,101696.41
2019-02-20T11:11:06.042Z,101698.96
2019-02-20T11:13:34.525Z,101692.27
2019-02-20T11:16:03.002Z,101702.58
2019-02-20T11:18:31.494Z,101701.05
2019-02-20T11:21:00.036Z,101702.24
2019-02-20T11:23:28.527Z,101701.00
2019-02-20T11:25:56.990Z,101693.01
2019-02-20T11:28:27.172Z,101700.22
2019-02-20T11:30:56.894Z,101702.79
2019-02-20T11:33:25.340Z,101703.92
2019-02-20T11:35:53.815Z,101706.56
2019-02-20T11:38:22.346Z,101709.80
2019-02-20T11:40:50.830Z,101716.13
2019-02-20T11:43:21.181Z,101719.42
2019-02-20T11:45:49.590Z,101720.78
2019-02-20T11:49:09.600Z,101717.81
2019-02-20T11:51:37.544Z,101728.47
2019-02-20T11:54:06.029Z,101722.02
2019-02-20T11:56:34.508Z,101722.13
2019-02-20T11:59:02.974Z,101726.20
2019-02-20T12:01:31.468Z,101723.70
2019-02-20T12:03:59.945Z,101724.77
2019-02-20T12:06:28.483Z,101723.08
2019-02-20T12:08:56.942Z,101718.84
2019-02-20T12:11:25.490Z,101717.51
2019-02-20T12:13:53.965Z,101722.69
2019-02-20T12:16:22.695Z,101725.06
2019-02-20T12:18:51.235Z,101721.25
2019-02-20T12:21:19.881Z,101718.80
2019-02-20T12:23:48.352Z,101713.74
2019-02-20T12:26:16.826Z,101711.54
2019-02-20T12:28:47.189Z,101720.99
2019-02-20T12:31:15.612Z,101724.29
2019-02-20T12:33:44.071Z,101726.17
2019-02-20T12:36:12.608Z,101723.09
2019-02-20T12:38:41.236Z,101722.78
2019-02-20T12:41:10.937Z,101725.73
2019-02-20T12:43:39.679Z,101725.37
2019-02-20T12:46:08.263Z,101729.33
2019-02-20T12:48:36.755Z,101730.07
2019-02-20T12:51:05.368Z,101727.98
2019-02-20T12:53:33.852Z,101717.51
2019-02-20T12:56:09.839Z,101727.38
2019-02-20T12:58:32.725Z,101721.23
2019-02-20T13:01:01.276Z,101726.25
2019-02-20T13:03:29.833Z,101725.60
2019-02-20T13:05:58.403Z,101724.17
2019-02-20T13:08:26.903Z,101728.86
2019-02-20T13:10:58.252Z,101724.19
2019-02-20T13:13:26.820Z,101726.45
2019-02-20T13:15:55.308Z,101724.04
2019-02-20T13:18:23.919Z,101725.87
2019-02-20T13:20:52.401Z,101724.45
2019-02-20T13:23:20.875Z,101721.87
2019-02-20T13:25:49.382Z,101731.84
2019-02-20T13:28:17.859Z,101730.34
2019-02-20T13:30:46.425Z,101733.53
2019-02-20T13:33:14.879Z,101729.63
2019-02-20T13:35:43.388Z,101727.44
2019-02-20T13:38:11.851Z,101727.69
2019-02-20T13:40:40.347Z,101731.61
2019-02-20T13:43:08.902Z,101732.58
2019-02-20T13:45:37.597Z,101723.87
2019-02-20T13:51:47.079Z,101721.29
2019-02-20T13:54:15.613Z,101720.55
2019-02-20T13:56:44.178Z,101723.59
2019-02-20T13:59:15.667Z,101721.37
2019-02-20T14:01:45.634Z,101716.11
2019-02-20T14:04:14.463Z,101724.36
2019-02-20T14:06:42.942Z,101717.11
2019-02-20T14:09:11.471Z,101713.78
2019-02-20T14:11:40.041Z,101719.84
2019-02-20T14:14:09.074Z,101715.13
2019-02-20T14:16:37.661Z,101721.41
2019-02-20T14:19:06.239Z,101718.81
2019-02-20T14:21:34.908Z,101723.16
2019-02-20T14:24:03.380Z,101720.83
2019-02-20T14:26:31.852Z,101716.41
2019-02-20T14:29:00.340Z,101716.52
2019-02-20T14:31:28.897Z,101719.86
2019-02-20T14:33:57.377Z,101717.46
2019-02-20T14:36:25.848Z,101714.36
2019-02-20T14:38:54.422Z,101706.62
2019-02-20T14:41:22.921Z,101712.89
2019-02-20T14:43:51.406Z,101717.84
2019-02-20T14:46:19.952Z,101707.25
2019-02-20T14:48:48.457Z,101714.44
2019-02-20T14:51:16.935Z,101717.90
2019-02-20T14:53:45.790Z,101718.37
2019-02-20T14:56:14.303Z,101723.09
2019-02-20T14:58:42.794Z,101725.56
2019-02-20T15:01:13.105Z,101715.58
2019-02-20T15:03:41.706Z,101718.47
2019-02-20T15:06:10.247Z,101723.86
2019-02-20T15:08:38.747Z,101721.15
2019-02-20T15:11:07.479Z,101721.54
2019-02-20T15:13:35.990Z,101722.04
2019-02-20T15:16:04.610Z,101718.30
2019-02-20T15:18:33.151Z,101715.55
2019-02-20T15:21:02.781Z,101718.83
2019-02-20T15:23:31.436Z,101722.39
2019-02-20T15:26:00.270Z,101724.59
2019-02-20T15:28:28.875Z,101726.81
2019-02-20T15:30:57.372Z,101737.15
2019-02-20T15:33:26.116Z,101733.44
2019-02-20T15:35:54.599Z,101726.08
2019-02-20T15:38:23.142Z,101732.14
2019-02-20T15:40:51.653Z,101734.06
2019-02-20T15:43:20.455Z,101730.84
2019-02-20T15:45:48.943Z,101731.70
2019-02-20T15:48:23.072Z,101743.94
2019-02-20T15:50:47.692Z,101741.08
2019-02-20T15:53:16.173Z,101735.88
2019-02-20T15:55:44.834Z,101738.48
2019-02-20T15:58:13.331Z,101741.42
2019-02-20T16:00:41.818Z,101732.41
2019-02-20T16:03:10.378Z,101741.63
2019-02-20T16:05:38.928Z,101740.12
2019-02-20T16:08:07.561Z,101743.89
2019-02-20T16:10:36.102Z,101739.31
2019-02-20T16:13:04.719Z,101741.73
2019-02-20T16:15:34.343Z,101740.88
2019-02-20T16:18:02.898Z,101739.52
2019-02-20T16:20:31.450Z,101739.42
2019-02-20T16:22:59.940Z,101745.33
2019-02-20T16:25:28.485Z,101739.52
2019-02-20T16:27:56.970Z,101742.53
2019-02-20T16:30:25.605Z,101734.52
2019-02-20T16:32:55.188Z,101737.62
2019-02-20T16:35:23.847Z,101737.06
2019-02-20T16:37:52.352Z,101738.10
2019-02-20T16:40:21.013Z,101734.56
2019-02-20T16:42:49.543Z,101741.06
2019-02-20T16:45:21.113Z,101745.66
2019-02-20T16:47:49.941Z,101739.50
2019-02-20T16:50:18.603Z,101745.41
2019-02-20T16:52:47.272Z,101739.39
2019-02-20T16:55:19.673Z,101739.99
2019-02-20T16:57:56.377Z,101740.62
2019-02-20T17:00:21.643Z,101747.12
2019-02-20T17:02:50.553Z,101743.22
2019-02-20T17:05:19.215Z,101751.93
2019-02-20T17:07:47.797Z,101756.38
2019-02-20T17:10:16.529Z,101757.34
2019-02-20T17:12:45.091Z,101752.20
2019-02-20T17:15:15.388Z,101756.84
2019-02-20T17:17:43.998Z,101764.59
2019-02-20T17:20:15.123Z,101774.17
2019-02-20T17:22:43.745Z,101779.68
2019-02-20T17:25:13.346Z,101779.41
2019-02-20T17:27:41.884Z,101789.48
2019-02-20T17:30:13.499Z,101792.34
2019-02-20T17:32:44.003Z,101795.45
2019-02-20T17:35:14.605Z,101789.11
2019-02-20T17:37:43.699Z,101792.08
2019-02-20T17:40:13.972Z,101791.98
2019-02-20T17:42:42.703Z,101789.45
2019-02-20T17:45:14.119Z,101792.41
2019-02-20T17:47:43.103Z,101797.76
2019-02-20T17:50:39.318Z,101797.92
2019-02-20T17:53:07.772Z,101799.77
2019-02-20T17:55:37.781Z,101801.12
2019-02-20T17:58:14.539Z,101804.78
2019-02-20T18:00:37.033Z,101803.95
2019-02-20T18:03:05.742Z,101809.44
2019-02-20T18:05:34.202Z,101813.13
2019-02-20T18:08:02.736Z,101813.82
2019-02-20T18:10:31.202Z,101813.92
2019-02-20T18:12:59.853Z,101815.77
2019-02-20T18:15:30.963Z,101820.69
2019-02-20T18:18:03.355Z,101814.19
2019-02-20T18:20:31.955Z,101815.27
2019-02-20T18:23:01.747Z,101817.31
2019-02-20T18:25:33.067Z,101819.16
2019-02-20T18:31:26.759Z,101815.24
2019-02-20T18:33:58.191Z,101816.82
2019-02-20T18:36:28.197Z,101824.48
2019-02-20T18:38:58.354Z,101832.85
2019-02-20T18:41:26.947Z,101831.67
2019-02-20T18:43:55.463Z,101828.01
2019-02-20T18:46:23.929Z,101832.49
2019-02-20T18:48:52.543Z,101837.11
2019-02-20T18:51:21.097Z,101826.52
2019-02-20T18:53:49.585Z,101833.02
2019-02-20T18:56:18.148Z,101825.19
2019-02-20T18:58:47.748Z,101831.19
2019-02-20T19:01:16.178Z,101826.94
2019-02-20T19:03:44.690Z,101831.00
2019-02-20T19:06:13.240Z,101835.32
2019-02-20T19:08:47.116Z,101832.73
2019-02-20T19:11:33.875Z,101835.08
2019-02-20T19:14:24.379Z,101832.12
2019-02-20T19:17:17.222Z,101841.15
2019-02-20T19:20:10.362Z,101832.69
2019-02-20T19:22:49.432Z,101835.94
2019-02-20T19:25:37.549Z,101832.38
2019-02-20T19:28:20.929Z,101829.00
2019-02-20T19:31:14.551Z,101830.03
2019-02-20T19:34:00.998Z,101830.75
2019-02-20T19:37:02.408Z,101831.21
2019-02-20T19:39:39.753Z,101827.55
2019-02-20T19:45:45.016Z,101825.52
2019-02-20T19:48:44.523Z,101825.34
2019-02-20T19:51:30.434Z,101827.92
2019-02-20T19:54:18.183Z,101821.92
2019-02-20T19:57:04.429Z,101824.23
2019-02-20T19:59:55.633Z,101820.11
2019-02-20T20:02:38.776Z,101819.80
2019-02-20T20:05:16.512Z,101814.40
2019-02-20T20:08:06.217Z,101810.73
2019-02-20T20:11:09.528Z,101813.64
2019-02-20T20:13:46.775Z,101819.80
2019-02-20T20:16:26.513Z,101816.15
2019-02-20T20:19:04.039Z,101815.75
2019-02-20T20:21:59.495Z,101814.03
2019-02-20T20:24:40.648Z,101816.47
2019-02-20T20:27:21.347Z,101820.45
2019-02-20T20:30:09.706Z,101810.27
2019-02-20T20:33:02.311Z,101815.41
2019-02-20T20:36:08.637Z,101810.86
2019-02-20T20:38:46.183Z,101814.25
2019-02-20T20:41:20.494Z,101809.80
2019-02-20T20:44:27.650Z,101807.01
2019-02-20T20:46:59.338Z,101810.56
2019-02-20T20:49:33.749Z,101807.70
2019-02-20T20:52:23.404Z,101808.81
2019-02-20T20:54:54.954Z,101808.81
2019-02-20T20:57:29.297Z,101807.96
2019-02-20T21:00:15.684Z,101800.17
2019-02-20T21:02:47.433Z,101798.82
2019-02-20T21:05:21.793Z,101799.28
2019-02-20T21:08:02.340Z,101803.93
2019-02-20T21:10:51.547Z,101803.76
2019-02-20T21:13:23.073Z,101803.39
2019-02-20T21:16:15.097Z,101801.08
2019-02-20T21:19:01.722Z,101803.31
2019-02-20T21:21:48.110Z,101799.04
2019-02-20T21:24:22.668Z,101799.63
2019-02-20T21:26:57.095Z,101796.56
2019-02-20T21:29:37.785Z,101809.18
2019-02-20T21:32:32.206Z,101808.50
2019-02-20T21:35:09.610Z,101813.54
2019-02-20T21:37:56.044Z,101818.27
2019-02-20T21:40:33.039Z,101818.27
2019-02-20T21:43:30.149Z,101824.52
2019-02-20T21:46:16.587Z,101815.06
2019-02-20T21:49:04.718Z,101817.18
2019-02-20T21:51:38.744Z,101817.55
2019-02-20T21:54:27.398Z,101816.95
2019-02-20T21:57:16.910Z,101818.89
2019-02-20T21:59:54.218Z,101814.55
2019-02-20T22:02:25.823Z,101810.19
2019-02-20T22:05:18.557Z,101812.80
2019-02-20T22:08:05.384Z,101809.83
2019-02-20T22:10:45.667Z,101811.55
2019-02-20T22:13:32.257Z,101816.59
2019-02-20T22:16:15.835Z,101812.21
2019-02-20T22:19:05.558Z,101815.59
2019-02-20T22:21:56.617Z,101807.96
2019-02-20T22:24:50.007Z,101816.77
2019-02-20T22:27:33.736Z,101813.20
2019-02-20T22:30:14.108Z,101812.34
2019-02-20T22:32:45.814Z,101813.86
2019-02-20T22:35:29.430Z,101820.13
2019-02-20T22:38:43.978Z,101815.80
2019-02-20T22:41:24.502Z,101823.33
2019-02-20T22:44:10.796Z,101826.63
2019-02-20T22:47:05.644Z,101824.19
2019-02-20T22:49:43.261Z,101827.55
2019-02-20T22:52:14.818Z,101831.80
2019-02-20T22:54:55.140Z,101833.75
2019-02-20T22:57:51.554Z,101826.39
2019-02-20T23:00:56.096Z,101827.58
2019-02-20T23:03:39.541Z,101819.73
2019-02-20T23:06:33.696Z,101823.52
2019-02-20T23:09:31.807Z,101821.97
2019-02-20T23:12:37.167Z,101828.56
2019-02-20T23:15:07.435Z,101819.66
2019-02-20T23:17:35.907Z,101818.20
2019-02-20T23:20:06.180Z,101810.91
2019-02-20T23:22:34.722Z,101810.91
2019-02-20T23:25:03.339Z,101811.50
2019-02-20T23:27:31.802Z,101810.42
2019-02-20T23:30:00.444Z,101814.84
2019-02-20T23:32:28.920Z,101810.78
2019-02-20T23:34:57.431Z,101802.41
2019-02-20T23:37:25.943Z,101806.73
2019-02-20T23:39:54.451Z,101808.75
2019-02-20T23:42:22.917Z,101812.34
2019-02-20T23:44:51.409Z,101812.90
2019-02-20T23:47:19.927Z,101809.06
2019-02-20T23:49:48.427Z,101812.86
2019-02-20T23:52:16.968Z,101803.17
2019-02-20T23:54:45.451Z,101800.09
2019-02-20T23:57:14.026Z,101801.64
2019-02-20T23:59:42.556Z,101807.45
